createdAt,value
2018-04-30T00:00:21.645Z,56.50
2018-04-30T00:02:48.831Z,55.20
2018-04-30T00:05:15.293Z,55.10
2018-04-30T00:07:42.512Z,55.00
2018-04-30T00:10:10.612Z,55.10
2018-04-30T00:12:37.200Z,55.00
2018-04-30T00:15:04.435Z,55.60
2018-04-30T00:17:31.646Z,55.00
2018-04-30T00:19:58.136Z,55.00
2018-04-30T00:22:25.309Z,54.50
2018-04-30T00:24:51.794Z,54.50
2018-04-30T00:27:18.261Z,54.40
2018-04-30T00:29:44.732Z,53.40
2018-04-30T00:32:12.696Z,52.10
2018-04-30T00:34:39.173Z,52.10
2018-04-30T00:37:05.623Z,52.20
2018-04-30T00:39:32.847Z,52.10
2018-04-30T00:41:59.313Z,52.00
2018-04-30T00:44:25.783Z,51.90
2018-04-30T00:46:52.244Z,52.20
2018-04-30T00:49:18.726Z,52.20
2018-04-30T00:51:45.380Z,52.50
2018-04-30T00:57:12.109Z,59.90
2018-04-30T00:59:39.304Z,62.40
2018-04-30T01:02:05.931Z,62.40
2018-04-30T01:04:32.388Z,65.00
2018-04-30T01:06:58.807Z,67.50
2018-04-30T01:09:25.731Z,72.90
2018-04-30T01:11:52.305Z,76.70
2018-04-30T01:14:18.930Z,79.50
2018-04-30T01:16:45.601Z,81.80
2018-04-30T01:19:12.113Z,84.00
2018-04-30T01:21:38.669Z,86.10
2018-04-30T01:24:05.229Z,87.80
2018-04-30T01:26:31.792Z,89.40
2018-04-30T01:28:58.333Z,90.50
2018-04-30T01:31:24.939Z,91.00
2018-04-30T01:33:52.347Z,91.60
2018-04-30T01:36:18.882Z,91.50
2018-04-30T01:38:45.480Z,91.80
2018-04-30T01:41:12.043Z,92.20
2018-04-30T01:43:38.576Z,92.50
2018-04-30T01:46:05.167Z,92.80
2018-04-30T01:48:31.772Z,92.90
2018-04-30T01:51:04.457Z,92.30
2018-04-30T01:53:31.029Z,91.30
2018-04-30T01:55:58.321Z,91.30
2018-04-30T01:58:24.910Z,91.30
2018-04-30T02:01:04.601Z,91.60
2018-04-30T02:03:31.233Z,91.50
2018-04-30T02:05:57.779Z,91.40
2018-04-30T02:08:24.375Z,91.30
2018-04-30T02:10:50.932Z,91.40
2018-04-30T02:13:18.228Z,91.80
2018-04-30T02:15:46.572Z,91.70
2018-04-30T02:18:13.101Z,91.70
2018-04-30T02:20:39.629Z,91.70
2018-04-30T02:23:06.934Z,92.20
2018-04-30T02:25:33.473Z,91.80
2018-04-30T02:28:00.048Z,91.50
2018-04-30T02:30:26.589Z,91.60
2018-04-30T02:32:53.192Z,91.70
2018-04-30T02:35:19.743Z,91.80
2018-04-30T02:37:46.282Z,91.90
2018-04-30T02:40:12.837Z,91.80
2018-04-30T02:42:40.189Z,92.00
2018-04-30T02:45:06.749Z,91.90
2018-04-30T02:47:34.029Z,92.00
2018-04-30T02:50:00.540Z,92.00
2018-04-30T02:52:27.145Z,92.10
2018-04-30T02:54:53.662Z,92.00
2018-04-30T02:57:20.228Z,91.90
2018-04-30T02:59:46.746Z,91.80
2018-04-30T03:02:18.249Z,91.80
2018-04-30T03:04:44.768Z,92.00
2018-04-30T03:07:12.108Z,92.10
2018-04-30T03:09:39.549Z,92.20
2018-04-30T03:12:07.471Z,92.30
2018-04-30T03:14:39.921Z,92.30
2018-04-30T03:17:07.197Z,92.40
2018-04-30T03:19:33.764Z,92.40
2018-04-30T03:22:00.356Z,92.30
2018-04-30T03:24:27.620Z,92.60
2018-04-30T03:26:54.229Z,92.60
2018-04-30T03:29:25.793Z,91.80
2018-04-30T03:31:52.529Z,84.20
2018-04-30T03:34:19.133Z,81.70
2018-04-30T03:36:45.722Z,81.60
2018-04-30T03:39:14.045Z,82.30
2018-04-30T03:41:44.584Z,82.30
2018-04-30T03:44:11.255Z,83.70
2018-04-30T03:46:37.831Z,84.10
2018-04-30T03:49:04.375Z,84.80
2018-04-30T03:51:30.949Z,84.60
2018-04-30T03:53:57.480Z,86.30
2018-04-30T03:56:23.986Z,85.30
2018-04-30T03:58:50.560Z,85.70
2018-04-30T04:01:29.497Z,83.70
2018-04-30T04:04:08.165Z,82.40
2018-04-30T04:06:46.790Z,80.60
2018-04-30T04:09:13.316Z,79.50
2018-04-30T04:11:39.873Z,77.40
2018-04-30T04:14:06.409Z,73.90
2018-04-30T04:16:32.961Z,72.20
2018-04-30T04:18:59.561Z,73.40
2018-04-30T04:21:26.218Z,73.60
2018-04-30T04:23:52.886Z,74.70
2018-04-30T04:26:19.444Z,75.00
2018-04-30T04:28:46.186Z,74.20
2018-04-30T04:31:14.232Z,74.50
2018-04-30T04:33:40.823Z,74.50
2018-04-30T04:36:07.376Z,74.40
2018-04-30T04:38:33.990Z,74.60
2018-04-30T04:41:01.325Z,74.20
2018-04-30T04:43:28.736Z,75.90
2018-04-30T04:45:56.271Z,75.80
2018-04-30T04:48:22.872Z,78.70
2018-04-30T04:50:49.428Z,79.50
2018-04-30T04:53:15.968Z,81.10
2018-04-30T04:55:43.245Z,85.50
2018-04-30T04:58:09.755Z,85.40
2018-04-30T05:00:36.358Z,89.10
2018-04-30T05:03:03.652Z,91.80
2018-04-30T05:05:31.061Z,92.80
2018-04-30T05:07:57.601Z,92.80
2018-04-30T05:10:24.274Z,94.00
2018-04-30T05:12:50.803Z,95.20
2018-04-30T05:15:18.157Z,96.90
2018-04-30T05:17:44.702Z,96.90
2018-04-30T05:20:11.292Z,98.00
2018-04-30T05:22:37.815Z,98.70
2018-04-30T05:25:04.412Z,98.60
2018-04-30T05:27:30.945Z,99.10
2018-04-30T05:29:59.090Z,99.90
2018-04-30T05:32:25.629Z,99.90
2018-04-30T05:34:52.176Z,99.90
2018-04-30T05:37:18.677Z,99.90
2018-04-30T05:39:45.256Z,99.90
2018-04-30T05:42:11.912Z,99.90
2018-04-30T05:44:38.521Z,99.90
2018-04-30T05:47:05.089Z,99.90
2018-04-30T05:49:31.657Z,99.90
2018-04-30T05:51:58.187Z,99.90
2018-04-30T05:54:25.485Z,99.90
2018-04-30T05:56:52.033Z,99.90
2018-04-30T05:59:18.582Z,99.90
2018-04-30T06:01:45.194Z,99.90
2018-04-30T06:04:11.832Z,99.90
2018-04-30T06:06:38.396Z,99.90
2018-04-30T06:09:05.021Z,99.90
2018-04-30T06:11:31.568Z,99.90
2018-04-30T06:13:58.128Z,99.90
2018-04-30T06:16:25.424Z,99.90
2018-04-30T06:18:51.969Z,99.90
2018-04-30T06:21:18.504Z,99.90
2018-04-30T06:23:45.100Z,99.90
2018-04-30T06:26:12.362Z,99.90
2018-04-30T06:28:38.923Z,99.90
2018-04-30T06:31:05.476Z,99.90
2018-04-30T06:33:32.152Z,99.90
2018-04-30T06:35:59.436Z,99.90
2018-04-30T06:38:26.738Z,99.70
2018-04-30T06:40:53.309Z,99.70
2018-04-30T06:43:19.849Z,99.50
2018-04-30T06:45:46.424Z,99.60
2018-04-30T06:48:12.948Z,99.90
2018-04-30T06:50:39.488Z,99.30
2018-04-30T06:53:06.020Z,99.50
2018-04-30T06:55:33.234Z,99.40
2018-04-30T06:57:59.854Z,99.40
2018-04-30T07:00:26.796Z,98.90
2018-04-30T07:02:53.870Z,98.90
2018-04-30T07:05:20.785Z,98.80
2018-04-30T07:07:47.758Z,98.60
2018-04-30T07:10:14.693Z,98.10
2018-04-30T07:12:41.655Z,97.90
2018-04-30T07:15:10.547Z,96.60
2018-04-30T07:17:37.931Z,95.60
2018-04-30T07:20:05.302Z,95.40
2018-04-30T07:22:31.889Z,95.40
2018-04-30T07:24:58.821Z,93.90
2018-04-30T07:27:25.532Z,93.30
2018-04-30T07:29:52.227Z,92.10
2018-04-30T07:32:19.550Z,86.50
2018-04-30T07:34:50.106Z,85.40
2018-04-30T07:37:18.133Z,84.30
2018-04-30T07:39:44.782Z,84.30
2018-04-30T07:42:11.523Z,79.80
2018-04-30T07:44:38.116Z,81.40
2018-04-30T07:47:05.413Z,71.30
2018-04-30T07:49:32.124Z,71.20
2018-04-30T07:51:59.502Z,69.60
2018-04-30T07:54:26.150Z,69.40
2018-04-30T07:56:52.833Z,69.30
2018-04-30T07:59:20.381Z,66.90
2018-04-30T08:01:47.729Z,76.80
2018-04-30T08:04:14.307Z,76.80
2018-04-30T08:06:40.853Z,68.40
2018-04-30T08:09:07.503Z,65.60
2018-04-30T08:11:34.058Z,64.70
2018-04-30T08:14:00.841Z,62.80
2018-04-30T08:16:28.977Z,61.90
2018-04-30T08:18:55.529Z,61.30
2018-04-30T08:21:22.094Z,57.60
2018-04-30T08:23:49.405Z,57.20
2018-04-30T08:26:16.081Z,57.10
2018-04-30T08:28:43.437Z,58.00
2018-04-30T08:31:10.056Z,57.30
2018-04-30T08:33:37.414Z,55.30
2018-04-30T08:36:03.972Z,55.30
2018-04-30T08:38:31.374Z,56.80
2018-04-30T08:40:58.024Z,56.80
2018-04-30T08:43:24.652Z,59.90
2018-04-30T08:45:51.354Z,53.90
2018-04-30T08:48:18.065Z,51.10
2018-04-30T08:50:44.620Z,51.70
2018-04-30T08:53:11.251Z,50.90
2018-04-30T08:55:37.845Z,48.90
2018-04-30T08:58:04.686Z,49.50
2018-04-30T09:00:31.468Z,49.50
2018-04-30T09:02:58.036Z,46.80
2018-04-30T09:05:25.393Z,47.90
2018-04-30T09:07:52.689Z,46.50
2018-04-30T09:10:19.335Z,46.50
2018-04-30T09:12:45.928Z,45.00
2018-04-30T09:15:13.220Z,45.70
2018-04-30T09:17:40.582Z,43.30
2018-04-30T09:20:07.164Z,43.30
2018-04-30T09:22:33.732Z,45.30
2018-04-30T09:25:00.341Z,45.00
2018-04-30T09:27:26.908Z,43.80
2018-04-30T09:29:53.467Z,42.30
2018-04-30T09:32:20.057Z,42.40
2018-04-30T09:34:46.687Z,43.20
2018-04-30T09:37:14.008Z,42.20
2018-04-30T09:39:40.553Z,42.30
2018-04-30T09:42:07.278Z,43.00
2018-04-30T09:44:33.809Z,44.20
2018-04-30T09:47:00.388Z,45.80
2018-04-30T09:49:27.719Z,38.70
2018-04-30T09:51:54.320Z,38.60
2018-04-30T09:54:20.965Z,36.20
2018-04-30T09:56:47.548Z,37.60
2018-04-30T09:59:14.181Z,37.40
2018-04-30T10:01:40.840Z,38.30
2018-04-30T10:04:07.478Z,39.10
2018-04-30T10:06:34.126Z,39.50
2018-04-30T10:09:05.345Z,37.60
2018-04-30T10:11:31.944Z,37.60
2018-04-30T10:13:58.502Z,37.30
2018-04-30T10:16:25.093Z,36.40
2018-04-30T10:18:51.630Z,36.70
2018-04-30T10:21:18.199Z,37.80
2018-04-30T10:23:44.873Z,35.10
2018-04-30T10:26:11.361Z,35.20
2018-04-30T10:28:37.983Z,35.50
2018-04-30T10:31:04.553Z,36.90
2018-04-30T10:33:31.098Z,32.90
2018-04-30T10:35:57.717Z,34.40
2018-04-30T10:38:24.314Z,33.60
2018-04-30T10:40:50.953Z,33.40
2018-04-30T10:43:18.308Z,33.00
2018-04-30T10:45:45.760Z,32.30
2018-04-30T10:48:12.377Z,32.30
2018-04-30T10:50:38.954Z,34.50
2018-04-30T10:53:06.361Z,31.70
2018-04-30T10:55:32.951Z,31.70
2018-04-30T10:58:00.353Z,30.30
2018-04-30T11:00:27.034Z,30.30
2018-04-30T11:02:53.639Z,32.30
2018-04-30T11:05:20.237Z,31.20
2018-04-30T11:07:46.776Z,31.50
2018-04-30T11:10:13.359Z,30.40
2018-04-30T11:12:40.702Z,30.10
2018-04-30T11:15:07.304Z,30.10
2018-04-30T11:17:33.893Z,31.10
2018-04-30T11:20:00.433Z,29.80
2018-04-30T11:22:27.011Z,30.90
2018-04-30T11:24:53.604Z,32.90
2018-04-30T11:27:20.196Z,31.10
2018-04-30T11:29:46.871Z,32.50
2018-04-30T11:32:13.547Z,32.20
2018-04-30T11:34:41.989Z,31.40
2018-04-30T11:37:09.955Z,31.40
2018-04-30T11:39:36.553Z,32.10
2018-04-30T11:42:03.896Z,31.30
2018-04-30T11:44:31.210Z,34.00
2018-04-30T11:46:58.844Z,34.00
2018-04-30T11:49:26.312Z,30.90
2018-04-30T11:51:56.877Z,30.90
2018-04-30T11:54:23.471Z,34.10
2018-04-30T11:56:50.115Z,31.00
2018-04-30T11:59:16.687Z,30.40
2018-04-30T12:01:43.256Z,29.90
2018-04-30T12:04:10.545Z,30.80
2018-04-30T12:06:37.144Z,30.70
2018-04-30T12:09:04.517Z,28.80
2018-04-30T12:11:31.888Z,31.70
2018-04-30T12:14:14.741Z,31.20
2018-04-30T12:16:41.373Z,29.70
2018-04-30T12:19:13.749Z,30.10
2018-04-30T12:21:40.345Z,30.10
2018-04-30T12:24:06.901Z,29.90
2018-04-30T12:26:33.525Z,30.00
2018-04-30T12:29:00.201Z,29.80
2018-04-30T12:31:26.876Z,29.80
2018-04-30T12:33:53.508Z,30.00
2018-04-30T12:36:20.892Z,29.30
2018-04-30T12:38:48.511Z,29.20
2018-04-30T12:41:15.861Z,28.60
2018-04-30T12:43:42.536Z,28.60
2018-04-30T12:46:09.076Z,27.90
2018-04-30T12:48:36.477Z,27.70
2018-04-30T12:51:04.074Z,27.70
2018-04-30T12:53:30.721Z,27.40
2018-04-30T12:55:58.219Z,27.90
2018-04-30T12:58:24.793Z,27.80
2018-04-30T13:00:51.437Z,27.60
2018-04-30T13:03:18.105Z,27.50
2018-04-30T13:05:45.387Z,28.80
2018-04-30T13:08:11.971Z,28.90
2018-04-30T13:10:38.604Z,29.10
2018-04-30T13:13:05.193Z,29.10
2018-04-30T13:15:31.740Z,28.10
2018-04-30T13:18:02.984Z,27.90
2018-04-30T13:20:29.833Z,27.90
2018-04-30T13:22:56.397Z,25.70
2018-04-30T13:25:23.001Z,26.70
2018-04-30T13:27:49.535Z,27.30
2018-04-30T13:30:16.176Z,28.00
2018-04-30T13:32:42.801Z,27.60
2018-04-30T13:35:09.381Z,27.00
2018-04-30T13:37:36.003Z,26.90
2018-04-30T13:40:02.644Z,26.80
2018-04-30T13:42:29.334Z,27.30
2018-04-30T13:44:56.076Z,28.00
2018-04-30T13:47:23.645Z,27.10
2018-04-30T13:49:51.006Z,27.70
2018-04-30T13:52:18.356Z,26.20
2018-04-30T13:54:44.937Z,26.20
2018-04-30T13:57:11.539Z,26.00
2018-04-30T13:59:38.115Z,26.70
2018-04-30T14:02:04.752Z,27.30
2018-04-30T14:04:35.336Z,27.90
2018-04-30T14:07:01.885Z,28.00
2018-04-30T14:09:28.513Z,27.40
2018-04-30T14:11:55.872Z,28.70
2018-04-30T14:14:23.143Z,29.40
2018-04-30T14:16:49.745Z,29.30
2018-04-30T14:19:17.108Z,29.00
2018-04-30T14:21:43.690Z,28.90
2018-04-30T14:24:10.333Z,26.80
2018-04-30T14:26:36.927Z,26.60
2018-04-30T14:29:04.382Z,27.70
2018-04-30T14:31:31.757Z,27.60
2018-04-30T14:34:02.134Z,27.50
2018-04-30T14:36:28.750Z,28.00
2018-04-30T14:38:55.441Z,27.80
2018-04-30T14:41:23.859Z,28.40
2018-04-30T14:43:50.436Z,28.50
2018-04-30T14:46:17.041Z,29.10
2018-04-30T14:48:43.674Z,28.70
2018-04-30T14:51:10.586Z,30.00
2018-04-30T14:53:37.323Z,30.80
2018-04-30T14:56:10.006Z,30.00
2018-04-30T14:58:37.423Z,29.00
2018-04-30T15:01:04.101Z,29.00
2018-04-30T15:03:31.454Z,29.20
2018-04-30T15:05:58.807Z,29.80
2018-04-30T15:08:26.138Z,31.20
2018-04-30T15:10:56.707Z,30.50
2018-04-30T15:13:24.407Z,31.00
2018-04-30T15:15:56.737Z,30.80
2018-04-30T15:18:33.229Z,31.50
2018-04-30T15:21:06.082Z,31.70
2018-04-30T15:23:34.747Z,32.30
2018-04-30T15:26:05.409Z,32.30
2018-04-30T15:28:32.563Z,33.50
2018-04-30T15:31:00.529Z,35.10
2018-04-30T15:33:28.193Z,35.20
2018-04-30T15:35:55.298Z,36.30
2018-04-30T15:38:22.498Z,37.30
2018-04-30T15:40:50.367Z,38.40
2018-04-30T15:43:17.520Z,38.40
2018-04-30T15:45:44.664Z,38.30
2018-04-30T15:48:11.919Z,36.90
2018-04-30T15:50:39.559Z,37.60
2018-04-30T15:53:06.734Z,37.70
2018-04-30T15:55:34.845Z,38.90
2018-04-30T15:58:01.963Z,38.80
2018-04-30T16:00:29.209Z,39.30
2018-04-30T16:02:56.463Z,40.30
2018-04-30T16:05:23.171Z,41.00
2018-04-30T16:07:49.779Z,40.60
2018-04-30T16:10:16.378Z,42.30
2018-04-30T16:12:42.949Z,41.40
2018-04-30T16:15:09.559Z,42.00
2018-04-30T16:17:36.896Z,42.50
2018-04-30T16:20:04.192Z,43.10
2018-04-30T16:22:30.750Z,42.50
2018-04-30T16:24:57.521Z,42.70
2018-04-30T16:27:24.265Z,43.20
2018-04-30T16:29:51.609Z,42.30
2018-04-30T16:32:18.271Z,42.40
2018-04-30T16:34:45.012Z,42.50
2018-04-30T16:37:12.450Z,43.10
2018-04-30T16:39:39.212Z,43.10
2018-04-30T16:42:05.928Z,43.60
2018-04-30T16:44:32.509Z,43.30
2018-04-30T16:46:59.168Z,43.20
2018-04-30T16:49:25.785Z,43.20
2018-04-30T16:51:52.494Z,43.00
2018-04-30T16:54:19.094Z,42.60
2018-04-30T16:56:45.695Z,42.50
2018-04-30T16:59:14.048Z,43.20
2018-04-30T17:01:40.820Z,43.20
2018-04-30T17:04:07.458Z,43.20
2018-04-30T17:06:34.788Z,43.90
2018-04-30T17:09:01.387Z,43.90
2018-04-30T17:11:28.062Z,44.20
2018-04-30T17:13:54.671Z,47.90
2018-04-30T17:16:21.322Z,49.60
2018-04-30T17:18:47.962Z,50.40
2018-04-30T17:21:14.643Z,50.20
2018-04-30T17:23:41.280Z,50.10
2018-04-30T17:26:07.938Z,51.00
2018-04-30T17:28:34.587Z,51.60
2018-04-30T17:31:01.375Z,51.00
2018-04-30T17:33:28.045Z,52.00
2018-04-30T17:35:55.479Z,53.00
2018-04-30T17:38:22.300Z,53.00
2018-04-30T17:40:48.889Z,53.30
2018-04-30T17:43:16.343Z,52.70
2018-04-30T17:45:42.981Z,52.60
2018-04-30T17:48:09.627Z,53.30
2018-04-30T17:50:36.226Z,53.90
2018-04-30T17:53:02.806Z,54.30
2018-04-30T17:55:29.430Z,53.70
2018-04-30T17:57:59.972Z,53.60
2018-04-30T18:00:27.328Z,54.20
2018-04-30T18:02:53.996Z,54.20
2018-04-30T18:05:20.655Z,54.60
2018-04-30T18:07:47.256Z,54.70
2018-04-30T18:10:14.049Z,54.80
2018-04-30T18:12:40.807Z,55.80
2018-04-30T18:15:07.365Z,56.30
2018-04-30T18:17:33.939Z,56.20
2018-04-30T18:20:00.636Z,56.80
2018-04-30T18:22:28.077Z,56.40
2018-04-30T18:24:54.691Z,56.40
2018-04-30T18:27:21.267Z,56.40
2018-04-30T18:29:47.853Z,56.10
2018-04-30T18:32:14.408Z,56.00
2018-04-30T18:34:41.015Z,56.90
2018-04-30T18:37:07.685Z,57.50
2018-04-30T18:39:34.285Z,57.40
2018-04-30T18:42:01.002Z,57.80
2018-04-30T18:44:27.738Z,57.60
2018-04-30T18:46:54.293Z,58.50
2018-04-30T18:49:20.914Z,59.20
2018-04-30T18:51:47.471Z,59.40
2018-04-30T18:54:14.060Z,59.70
2018-04-30T18:56:40.693Z,60.30
2018-04-30T18:59:07.229Z,60.50
2018-04-30T19:01:33.821Z,61.30
2018-04-30T19:04:01.120Z,62.80
2018-04-30T19:06:27.776Z,62.80
2018-04-30T19:08:54.374Z,63.00
2018-04-30T19:11:21.080Z,64.00
2018-04-30T19:13:47.667Z,64.10
2018-04-30T19:16:14.562Z,64.70
2018-04-30T19:18:41.881Z,66.10
2018-04-30T19:21:08.538Z,66.00
2018-04-30T19:23:35.074Z,66.30
2018-04-30T19:26:01.711Z,67.40
2018-04-30T19:28:28.383Z,67.10
2018-04-30T19:30:55.032Z,67.30
2018-04-30T19:33:22.313Z,68.00
2018-04-30T19:35:48.934Z,68.00
2018-04-30T19:38:15.612Z,67.40
2018-04-30T19:40:42.222Z,67.00
2018-04-30T19:43:08.879Z,66.40
2018-04-30T19:45:35.489Z,66.60
2018-04-30T19:48:02.178Z,67.30
2018-04-30T19:50:37.821Z,68.50
2018-04-30T19:53:23.374Z,68.30
2018-04-30T19:55:58.167Z,68.80
2018-04-30T19:58:27.368Z,69.20
2018-04-30T20:03:35.083Z,72.00
2018-04-30T20:06:03.769Z,72.50
2018-04-30T20:08:34.794Z,72.50
2018-04-30T20:11:01.493Z,74.70
2018-04-30T20:13:28.111Z,75.10
2018-04-30T20:15:54.677Z,75.70
2018-04-30T20:18:21.229Z,76.00
2018-04-30T20:20:47.815Z,76.20
2018-04-30T20:23:15.093Z,77.30
2018-04-30T20:25:41.726Z,77.20
2018-04-30T20:28:08.297Z,76.50
2018-04-30T20:30:34.886Z,76.60
2018-04-30T20:33:03.477Z,76.70
2018-04-30T20:35:31.793Z,77.50
2018-04-30T20:37:58.375Z,77.50
2018-04-30T20:40:24.997Z,78.60
2018-04-30T20:43:14.141Z,79.50
2018-04-30T20:45:40.725Z,79.50
2018-04-30T20:48:07.413Z,80.00
2018-04-30T20:50:35.121Z,80.60
2018-04-30T20:53:01.647Z,81.70
2018-04-30T20:55:28.268Z,82.50
2018-04-30T20:57:54.840Z,83.30
2018-04-30T21:00:31.483Z,84.80
2018-04-30T21:02:58.129Z,84.60
2018-04-30T21:05:24.776Z,85.50
2018-04-30T21:08:02.345Z,86.20
2018-04-30T21:10:29.692Z,86.90
2018-04-30T21:12:56.240Z,86.90
2018-04-30T21:15:22.833Z,87.30
2018-04-30T21:17:50.177Z,89.80
2018-04-30T21:20:17.523Z,89.50
2018-04-30T21:22:47.908Z,88.60
2018-04-30T21:25:19.506Z,87.80
2018-04-30T21:27:57.030Z,87.50
2018-04-30T21:30:23.791Z,89.90
2018-04-30T21:32:50.345Z,90.10
2018-04-30T21:35:25.915Z,89.80
2018-04-30T21:37:56.502Z,87.90
2018-04-30T21:40:24.487Z,86.20
2018-04-30T21:42:51.021Z,86.20
2018-04-30T21:45:17.580Z,84.60
2018-04-30T21:47:44.108Z,84.50
2018-04-30T21:50:23.879Z,83.60
2018-04-30T21:53:01.582Z,83.80
2018-04-30T21:55:28.213Z,83.40
2018-04-30T21:57:54.760Z,83.50
2018-04-30T22:00:29.176Z,82.70
2018-04-30T22:02:56.522Z,83.00
2018-04-30T22:05:23.105Z,82.20
2018-04-30T22:07:49.704Z,81.50
2018-04-30T22:10:27.264Z,79.20
2018-04-30T22:12:53.783Z,79.20
2018-04-30T22:15:20.332Z,79.40
2018-04-30T22:17:46.985Z,79.40
2018-04-30T22:20:13.657Z,79.00
2018-04-30T22:23:04.873Z,79.50
2018-04-30T22:25:31.411Z,79.80
2018-04-30T22:27:58.109Z,79.90
2018-04-30T22:30:24.688Z,79.60
2018-04-30T22:32:51.385Z,79.10
2018-04-30T22:35:17.983Z,78.10
2018-04-30T22:37:45.387Z,76.50
2018-04-30T22:40:11.998Z,76.50
2018-04-30T22:42:38.602Z,77.00
2018-04-30T22:45:06.018Z,75.70
2018-04-30T22:47:32.578Z,75.60
2018-04-30T22:49:59.931Z,75.00
2018-04-30T22:52:30.333Z,75.00
2018-04-30T22:54:56.924Z,75.00
2018-04-30T22:57:24.571Z,74.60
2018-04-30T22:59:53.148Z,74.40
2018-04-30T23:02:19.706Z,73.90
2018-04-30T23:04:47.012Z,73.60
2018-04-30T23:07:13.576Z,73.60
2018-04-30T23:09:40.145Z,73.10
2018-04-30T23:12:06.717Z,73.00
2018-04-30T23:14:33.329Z,72.80
2018-04-30T23:16:59.890Z,71.90
2018-04-30T23:19:26.472Z,71.60
2018-04-30T23:21:53.032Z,71.80
2018-04-30T23:24:19.607Z,71.50
2018-04-30T23:26:46.183Z,71.60
2018-04-30T23:29:14.203Z,72.20
2018-04-30T23:31:40.866Z,72.20
2018-04-30T23:34:12.333Z,72.10
2018-04-30T23:36:38.951Z,72.30
2018-04-30T23:39:26.189Z,72.30
2018-04-30T23:42:04.938Z,72.30
2018-04-30T23:44:33.949Z,72.60
2018-04-30T23:47:03.633Z,72.60
2018-04-30T23:49:45.369Z,72.80
2018-04-30T23:52:11.911Z,72.00
2018-04-30T23:54:38.473Z,72.40
2018-04-30T23:57:06.065Z,72.10
2018-04-30T23:59:45.804Z,72.60
